createdAt,value
2018-06-11T02:16:58.763Z,3
2018-06-11T02:25:29.286Z,7
2018-06-11T02:29:59.540Z,10
2018-06-11T02:32:59.717Z,13
2018-06-11T02:35:29.853Z,17
2018-06-11T02:36:59.976Z,20
2018-06-11T02:39:00.105Z,23
2018-06-11T02:40:30.158Z,27
2018-06-11T02:41:30.249Z,30
2018-06-11T02:42:30.302Z,33
2018-06-11T02:43:30.353Z,37
2018-06-11T02:44:00.920Z,40
2018-06-11T02:45:01.409Z,43
2018-06-11T02:46:00.826Z,47
2018-06-11T02:46:30.581Z,50
2018-06-11T02:47:30.634Z,53
2018-06-11T02:49:01.591Z,57
2018-06-11T02:49:30.763Z,67
2018-06-11T02:50:00.811Z,70
2018-06-11T02:50:30.776Z,73
2018-06-11T02:51:01.461Z,77
2018-06-11T02:52:01.456Z,83
2018-06-11T02:52:30.941Z,87
2018-06-11T02:53:01.529Z,93
2018-06-11T02:54:31.096Z,100
2018-06-11T02:55:01.701Z,107
2018-06-11T02:55:31.143Z,113
2018-06-11T02:56:02.095Z,117
2018-06-11T02:56:31.239Z,120
2018-06-11T02:57:02.471Z,123
2018-06-11T02:57:31.213Z,127
2018-06-11T02:58:01.887Z,130
2018-06-11T02:58:31.328Z,133
2018-06-11T02:59:01.667Z,130
2018-06-11T02:59:31.360Z,133
2018-06-11T03:00:01.368Z,137
2018-06-11T03:02:01.575Z,133
2018-06-11T03:03:01.580Z,140
2018-06-11T03:03:31.603Z,150
2018-06-11T03:04:01.625Z,157
2018-06-11T03:04:31.727Z,167
2018-06-11T03:05:01.695Z,180
2018-06-11T03:05:31.712Z,187
2018-06-11T03:06:31.770Z,190
2018-06-11T03:07:01.838Z,193
2018-06-11T03:07:31.827Z,200
2018-06-11T03:08:01.852Z,213
2018-06-11T03:08:31.884Z,227
2018-06-11T03:09:01.928Z,237
2018-06-11T03:09:31.944Z,250
2018-06-11T03:10:01.992Z,263
2018-06-11T03:10:32.024Z,267
2018-06-11T03:11:02.134Z,270
2018-06-11T03:12:02.127Z,273
2018-06-11T03:12:32.151Z,280
2018-06-11T03:13:02.163Z,290
2018-06-11T03:13:32.208Z,300
2018-06-11T03:14:02.219Z,310
2018-06-11T03:14:32.256Z,313
2018-06-11T03:15:02.290Z,320
2018-06-11T03:15:32.365Z,327
2018-06-11T03:16:32.407Z,337
2018-06-11T03:17:02.486Z,357
2018-06-11T03:17:32.480Z,370
2018-06-11T03:18:02.482Z,377
2018-06-11T03:18:32.505Z,387
2018-06-11T03:19:02.538Z,403
2018-06-11T03:19:32.644Z,420
2018-06-11T03:20:02.629Z,440
2018-06-11T03:20:32.898Z,457
2018-06-11T03:21:02.695Z,463
2018-06-11T03:21:32.694Z,470
2018-06-11T03:22:02.757Z,477
2018-06-11T03:23:02.778Z,480
2018-06-11T03:23:32.826Z,493
2018-06-11T03:24:02.845Z,510
2018-06-11T03:24:32.870Z,523
2018-06-11T03:25:02.908Z,537
2018-06-11T03:25:32.934Z,543
2018-06-11T03:26:02.972Z,550
2018-06-11T03:26:33.000Z,547
2018-06-11T03:27:03.048Z,560
2018-06-11T03:27:33.055Z,583
2018-06-11T03:28:03.084Z,603
2018-06-11T03:28:33.116Z,610
2018-06-11T03:29:03.192Z,607
2018-06-11T03:29:33.185Z,603
2018-06-11T03:30:33.328Z,610
2018-06-11T03:31:03.274Z,627
2018-06-11T03:31:33.321Z,643
2018-06-11T03:32:03.396Z,660
2018-06-11T03:32:33.365Z,667
2018-06-11T03:33:03.433Z,683
2018-06-11T03:33:33.472Z,690
2018-06-11T03:34:03.506Z,680
2018-06-11T03:34:33.501Z,667
2018-06-11T03:35:03.544Z,653
2018-06-11T03:35:33.647Z,640
2018-06-11T03:36:33.675Z,650
2018-06-11T03:37:03.728Z,660
2018-06-11T03:37:33.698Z,683
2018-06-11T03:38:03.774Z,733
2018-06-11T03:38:33.798Z,777
2018-06-11T03:39:03.860Z,817
2018-06-11T03:39:33.874Z,837
2018-06-11T03:40:33.887Z,827
2018-06-11T03:41:03.914Z,837
2018-06-11T03:41:33.937Z,847
2018-06-11T03:42:04.036Z,853
2018-06-11T03:42:34.077Z,870
2018-06-11T03:43:04.047Z,883
2018-06-11T03:43:34.068Z,903
2018-06-11T03:44:04.163Z,933
2018-06-11T03:44:34.111Z,950
2018-06-11T03:45:04.211Z,943
2018-06-11T03:45:34.238Z,983
2018-06-11T03:46:04.258Z,1050
2018-06-11T03:46:34.239Z,1083
2018-06-11T03:47:04.325Z,1103
2018-06-11T03:47:34.332Z,1153
2018-06-11T03:48:04.356Z,1213
2018-06-11T03:48:34.395Z,1257
2018-06-11T03:49:04.480Z,1280
2018-06-11T03:49:34.454Z,1307
2018-06-11T03:50:04.505Z,1337
2018-06-11T03:50:34.495Z,1363
2018-06-11T03:51:04.551Z,1367
2018-06-11T03:51:34.564Z,1357
2018-06-11T03:52:34.609Z,1383
2018-06-11T03:53:04.698Z,1433
2018-06-11T03:53:34.745Z,1467
2018-06-11T03:54:04.758Z,1477
2018-06-11T03:54:34.727Z,1497
2018-06-11T03:55:04.792Z,1540
2018-06-11T03:55:34.798Z,1580
2018-06-11T03:56:04.812Z,1613
2018-06-11T03:56:34.848Z,1627
2018-06-11T03:57:04.908Z,1643
2018-06-11T03:57:34.907Z,1660
2018-06-11T03:58:04.940Z,1680
2018-06-11T03:58:34.970Z,1683
2018-06-11T03:59:05.011Z,1690
2018-06-11T03:59:35.041Z,1707
2018-06-11T04:00:05.094Z,1730
2018-06-11T04:00:35.122Z,1750
2018-06-11T04:01:05.127Z,1763
2018-06-11T04:01:35.197Z,1773
2018-06-11T04:02:05.186Z,1780
2018-06-11T04:02:35.240Z,1787
2018-06-11T04:03:05.333Z,1793
2018-06-11T04:03:35.286Z,1787
2018-06-11T04:04:05.360Z,1803
2018-06-11T04:04:35.376Z,1837
2018-06-11T04:05:05.428Z,1867
2018-06-11T04:05:35.404Z,1903
2018-06-11T04:06:05.509Z,1943
2018-06-11T04:06:35.493Z,1980
2018-06-11T04:07:05.578Z,2017
2018-06-11T04:07:35.546Z,2073
2018-06-11T04:08:05.587Z,2123
2018-06-11T04:08:35.591Z,2153
2018-06-11T04:09:05.690Z,2183
2018-06-11T04:09:35.644Z,2173
2018-06-11T04:10:35.974Z,2213
2018-06-11T04:11:05.834Z,2247
2018-06-11T04:11:35.792Z,2243
2018-06-11T04:12:05.831Z,2197
2018-06-11T04:12:35.832Z,2187
2018-06-11T04:13:05.871Z,2233
2018-06-11T04:13:35.898Z,2270
2018-06-11T04:14:05.928Z,2287
2018-06-11T04:14:35.953Z,2303
2018-06-11T04:15:05.992Z,2307
2018-06-11T04:15:36.072Z,2320
2018-06-11T04:16:06.047Z,2330
2018-06-11T04:16:36.096Z,2333
2018-06-11T04:17:06.110Z,2360
2018-06-11T04:17:36.195Z,2417
2018-06-11T04:18:06.168Z,2457
2018-06-11T04:18:36.251Z,2507
2018-06-11T04:19:06.257Z,2557
2018-06-11T04:19:36.277Z,2613
2018-06-11T04:20:06.316Z,2673
2018-06-11T04:20:36.373Z,2727
2018-06-11T04:21:06.371Z,2773
2018-06-11T04:21:36.438Z,2800
2018-06-11T04:22:06.459Z,2827
2018-06-11T04:22:36.543Z,2860
2018-06-11T04:23:06.561Z,2897
2018-06-11T04:23:36.541Z,2913
2018-06-11T04:24:06.572Z,2927
2018-06-11T04:24:36.569Z,2987
2018-06-11T04:25:06.616Z,3043
2018-06-11T04:25:36.732Z,3060
2018-06-11T04:26:06.700Z,3063
2018-06-11T04:26:36.777Z,3080
2018-06-11T04:27:06.821Z,3113
2018-06-11T04:27:36.753Z,3173
2018-06-11T04:28:06.855Z,3220
2018-06-11T04:28:36.833Z,3253
2018-06-11T04:29:06.902Z,3280
2018-06-11T04:29:36.913Z,3297
2018-06-11T04:30:06.942Z,3300
2018-06-11T04:30:37.005Z,3303
2018-06-11T04:31:07.022Z,3283
2018-06-11T04:31:37.066Z,3287
2018-06-11T04:32:07.033Z,3297
2018-06-11T04:32:37.088Z,3300
2018-06-11T04:33:07.151Z,3313
2018-06-11T04:33:37.132Z,3323
2018-06-11T04:34:07.253Z,3330
2018-06-11T04:34:37.218Z,3353
2018-06-11T04:35:07.269Z,3393
2018-06-11T04:35:37.290Z,3447
2018-06-11T04:36:07.324Z,3523
2018-06-11T04:36:37.324Z,3600
2018-06-11T04:37:07.387Z,3653
2018-06-11T04:37:37.447Z,3680
2018-06-11T04:38:07.465Z,3677
2018-06-11T04:38:37.482Z,3660
2018-06-11T04:39:07.502Z,3643
2018-06-11T04:39:37.524Z,3603
2018-06-11T04:40:07.555Z,3573
2018-06-11T04:40:37.565Z,3563
2018-06-11T04:41:07.601Z,3560
2018-06-11T04:41:37.735Z,3557
2018-06-11T04:42:07.685Z,3563
2018-06-11T04:42:37.684Z,3580
2018-06-11T04:43:07.711Z,3587
2018-06-11T04:43:37.764Z,3583
2018-06-11T04:44:07.778Z,3627
2018-06-11T04:44:37.801Z,3680
2018-06-11T04:45:07.838Z,3703
2018-06-11T04:45:37.874Z,3690
2018-06-11T04:46:07.892Z,3680
2018-06-11T04:46:38.197Z,3687
2018-06-11T04:47:07.959Z,3720
2018-06-11T04:47:38.000Z,3763
2018-06-11T04:48:08.021Z,3803
2018-06-11T04:48:38.061Z,3840
2018-06-11T04:49:08.128Z,3877
2018-06-11T04:49:38.523Z,3893
2018-06-11T04:50:08.139Z,3887
2018-06-11T04:50:38.241Z,3890
2018-06-11T04:51:08.198Z,3883
2018-06-11T04:52:08.320Z,3887
2018-06-11T04:52:38.360Z,3900
2018-06-11T04:53:08.386Z,3903
2018-06-11T04:53:38.393Z,3917
2018-06-11T04:54:08.432Z,3943
2018-06-11T04:54:38.483Z,3983
2018-06-11T04:55:08.518Z,4057
2018-06-11T04:55:38.547Z,4163
2018-06-11T04:56:08.536Z,4263
2018-06-11T04:56:38.666Z,4350
2018-06-11T04:57:08.627Z,4427
2018-06-11T04:57:38.618Z,4500
2018-06-11T04:58:08.694Z,4573
2018-06-11T04:58:38.674Z,4683
2018-06-11T04:59:08.699Z,4807
2018-06-11T04:59:38.744Z,4910
2018-06-11T05:00:08.798Z,5000
2018-06-11T05:00:38.881Z,5057
2018-06-11T05:01:08.818Z,5070
2018-06-11T05:01:38.863Z,5053
2018-06-11T05:02:08.975Z,5027
2018-06-11T05:02:38.920Z,4997
2018-06-11T05:03:08.991Z,4980
2018-06-11T05:03:38.974Z,4963
2018-06-11T05:04:09.035Z,4930
2018-06-11T05:04:39.040Z,4910
2018-06-11T05:05:09.102Z,4903
2018-06-11T05:06:09.163Z,4950
2018-06-11T05:06:39.684Z,5057
2018-06-11T05:07:09.256Z,5177
2018-06-11T05:07:39.220Z,5263
2018-06-11T05:08:09.299Z,5323
2018-06-11T05:08:39.314Z,5367
2018-06-11T05:09:09.366Z,5390
2018-06-11T05:09:39.372Z,5330
2018-06-11T05:10:09.468Z,5220
2018-06-11T05:10:39.406Z,5190
2018-06-11T05:11:09.467Z,5317
2018-06-11T05:11:39.615Z,5520
2018-06-11T05:12:09.523Z,5710
2018-06-11T05:12:39.576Z,5820
2018-06-11T05:13:09.581Z,5897
2018-06-11T05:13:39.602Z,5957
2018-06-11T05:14:09.619Z,6017
2018-06-11T05:14:39.699Z,6090
2018-06-11T05:15:09.737Z,6137
2018-06-11T05:15:39.714Z,6157
2018-06-11T05:16:09.747Z,6153
2018-06-11T05:16:39.791Z,6137
2018-06-11T05:17:39.854Z,6143
2018-06-11T05:18:09.926Z,6150
2018-06-11T05:18:39.937Z,6190
2018-06-11T05:19:10.047Z,6290
2018-06-11T05:19:40.152Z,6430
2018-06-11T05:20:10.104Z,6570
2018-06-11T05:20:40.075Z,6657
2018-06-11T05:21:10.141Z,6713
2018-06-11T05:22:10.171Z,6687
2018-06-11T05:22:40.205Z,6647
2018-06-11T05:23:10.225Z,6613
2018-06-11T05:23:40.334Z,6633
2018-06-11T05:24:10.289Z,6713
2018-06-11T05:24:40.288Z,6833
2018-06-11T05:25:10.353Z,6970
2018-06-11T05:25:40.371Z,7060
2018-06-11T05:26:10.374Z,7107
2018-06-11T05:26:40.396Z,7210
2018-06-11T05:27:10.732Z,7277
2018-06-11T05:27:40.461Z,7273
2018-06-11T05:28:10.523Z,7237
2018-06-11T05:28:40.546Z,7170
2018-06-11T05:29:10.587Z,7107
2018-06-11T05:30:10.615Z,7173
2018-06-11T05:30:40.659Z,7283
2018-06-11T05:31:10.723Z,7413
2018-06-11T05:31:40.744Z,7503
2018-06-11T05:32:10.873Z,7533
2018-06-11T05:32:40.761Z,7577
2018-06-11T05:33:10.785Z,7590
2018-06-11T05:33:40.838Z,7520
2018-06-11T05:34:10.858Z,7373
2018-06-11T05:34:40.953Z,7237
2018-06-11T05:35:10.909Z,7213
2018-06-11T05:35:40.962Z,7247
2018-06-11T05:36:10.975Z,7230
2018-06-11T05:36:41.052Z,7153
2018-06-11T05:37:11.125Z,7103
2018-06-11T05:37:41.150Z,7090
2018-06-11T05:38:11.092Z,7150
2018-06-11T05:38:41.190Z,7240
2018-06-11T05:39:11.174Z,7310
2018-06-11T05:39:41.271Z,7317
2018-06-11T05:40:11.215Z,7253
2018-06-11T05:40:41.316Z,7177
2018-06-11T05:41:11.288Z,7170
2018-06-11T05:41:41.409Z,7253
2018-06-11T05:42:11.417Z,7403
2018-06-11T05:42:41.426Z,7537
2018-06-11T05:43:11.417Z,7663
2018-06-11T05:43:41.466Z,7727
2018-06-11T05:44:11.543Z,7837
2018-06-11T05:44:41.587Z,8000
2018-06-11T05:45:11.526Z,8187
2018-06-11T05:45:41.587Z,8350
2018-06-11T05:46:11.588Z,8453
2018-06-11T05:46:41.619Z,8480
2018-06-11T05:47:11.739Z,8483
2018-06-11T05:47:41.695Z,8487
2018-06-11T05:48:11.773Z,8477
2018-06-11T05:48:41.756Z,8460
2018-06-11T05:49:11.781Z,8503
2018-06-11T05:49:41.876Z,8647
2018-06-11T05:50:11.836Z,8807
2018-06-11T05:50:41.859Z,8873
2018-06-11T05:51:11.904Z,8810
2018-06-11T05:51:41.944Z,8677
2018-06-11T05:52:11.961Z,8593
2018-06-11T05:52:42.217Z,8633
2018-06-11T05:53:12.014Z,8810
2018-06-11T05:53:42.052Z,9030
2018-06-11T05:54:12.126Z,9187
2018-06-11T05:54:42.116Z,9163
2018-06-11T05:55:12.137Z,9020
2018-06-11T05:55:42.214Z,9220
2018-06-11T05:56:42.286Z,9027
2018-06-11T05:57:12.261Z,8827
2018-06-11T05:57:42.397Z,8680
2018-06-11T05:58:12.407Z,8617
2018-06-11T05:58:42.432Z,8587
2018-06-11T05:59:12.413Z,8533
2018-06-11T05:59:42.465Z,8390
2018-06-11T06:00:12.486Z,8177
2018-06-11T06:00:42.559Z,7990
2018-06-11T06:01:12.543Z,7897
2018-06-11T06:01:42.581Z,7927
2018-06-11T06:02:12.602Z,7903
2018-06-11T06:02:42.684Z,7580
2018-06-11T06:03:12.653Z,7563
2018-06-11T06:03:42.698Z,8263
2018-06-11T06:04:12.732Z,8713
2018-06-11T06:04:42.800Z,8727
2018-06-11T06:05:12.843Z,8710
2018-06-11T06:05:42.821Z,8757
2018-06-11T06:06:12.856Z,8907
2018-06-11T06:06:42.893Z,9147
2018-06-11T06:07:12.930Z,9390
2018-06-11T06:07:42.999Z,9583
2018-06-11T06:08:12.967Z,9700
2018-06-11T06:08:43.031Z,9723
2018-06-11T06:09:13.061Z,9730
2018-06-11T06:09:43.080Z,9747
2018-06-11T06:10:13.115Z,9683
2018-06-11T06:10:43.130Z,9567
2018-06-11T06:11:13.177Z,9397
2018-06-11T06:11:43.155Z,9217
2018-06-11T06:12:13.263Z,9040
2018-06-11T06:12:43.513Z,8927
2018-06-11T06:13:13.331Z,8820
2018-06-11T06:13:43.326Z,8560
2018-06-11T06:14:13.434Z,8327
2018-06-11T06:14:43.391Z,8290
2018-06-11T06:15:13.392Z,8393
2018-06-11T06:15:43.454Z,8367
2018-06-11T06:16:13.508Z,8283
2018-06-11T06:16:43.475Z,8140
2018-06-11T06:17:13.513Z,8047
2018-06-11T06:17:43.588Z,8023
2018-06-11T06:18:43.637Z,7913
2018-06-11T06:19:13.636Z,7693
2018-06-11T06:19:43.953Z,7470
2018-06-11T06:20:13.698Z,7323
2018-06-11T06:20:43.728Z,7300
2018-06-11T06:21:13.742Z,7353
2018-06-11T06:21:43.828Z,7457
2018-06-11T06:22:13.807Z,7557
2018-06-11T06:22:43.866Z,7680
2018-06-11T06:23:13.867Z,7810
2018-06-11T06:23:43.919Z,7840
2018-06-11T06:24:13.930Z,7757
2018-06-11T06:24:43.956Z,7583
2018-06-11T06:25:14.002Z,7440
2018-06-11T06:25:44.019Z,7320
2018-06-11T06:26:14.063Z,7327
2018-06-11T06:26:44.150Z,7347
2018-06-11T06:27:14.124Z,7417
2018-06-11T06:27:44.222Z,7567
2018-06-11T06:28:14.267Z,7807
2018-06-11T06:28:44.235Z,8060
2018-06-11T06:29:14.329Z,8210
2018-06-11T06:29:44.266Z,8280
2018-06-11T06:30:14.359Z,8233
2018-06-11T06:30:44.392Z,8113
2018-06-11T06:31:14.375Z,7997
2018-06-11T06:31:44.409Z,7933
2018-06-11T06:32:14.482Z,7987
2018-06-11T06:32:44.537Z,8153
2018-06-11T06:33:14.503Z,8423
2018-06-11T06:33:44.529Z,8670
2018-06-11T06:34:14.674Z,8863
2018-06-11T06:34:44.724Z,9030
2018-06-11T06:35:14.615Z,9190
2018-06-11T06:35:44.687Z,9397
2018-06-11T06:36:14.674Z,9630
2018-06-11T06:36:44.699Z,9840
2018-06-11T06:37:14.756Z,10030
2018-06-11T06:37:44.891Z,10103
2018-06-11T06:38:14.794Z,10083
2018-06-11T06:38:44.831Z,10047
2018-06-11T06:39:14.869Z,10083
2018-06-11T06:39:44.933Z,10250
2018-06-11T06:40:14.914Z,10453
2018-06-11T06:40:44.945Z,10570
2018-06-11T06:41:14.990Z,10587
2018-06-11T06:41:45.020Z,10500
2018-06-11T06:42:15.031Z,10367
2018-06-11T06:42:45.098Z,10247
2018-06-11T06:43:15.093Z,10117
2018-06-11T06:43:45.125Z,9940
2018-06-11T06:44:15.159Z,9773
2018-06-11T06:44:45.187Z,9683
2018-06-11T06:45:15.236Z,9647
2018-06-11T06:45:45.341Z,9537
2018-06-11T06:46:15.284Z,9373
2018-06-11T06:46:45.340Z,9270
2018-06-11T06:47:15.341Z,9290
2018-06-11T06:47:45.411Z,9307
2018-06-11T06:48:15.454Z,9257
2018-06-11T06:48:45.501Z,9273
2018-06-11T06:49:15.518Z,9367
2018-06-11T06:49:45.586Z,9470
2018-06-11T06:50:15.606Z,9490
2018-06-11T06:50:45.603Z,9480
2018-06-11T06:51:15.657Z,9500
2018-06-11T06:52:15.726Z,9423
2018-06-11T06:52:45.752Z,9273
2018-06-11T06:53:15.786Z,9090
2018-06-11T06:53:45.871Z,8927
2018-06-11T06:54:15.818Z,8743
2018-06-11T06:54:45.843Z,8557
2018-06-11T06:55:15.881Z,8417
2018-06-11T06:55:45.931Z,8423
2018-06-11T06:56:15.934Z,8533
2018-06-11T06:56:46.038Z,8590
2018-06-11T06:57:15.996Z,8550
2018-06-11T06:57:46.038Z,8477
2018-06-11T06:58:46.056Z,8537
2018-06-11T06:59:16.126Z,8627
2018-06-11T06:59:46.112Z,8693
2018-06-11T07:00:16.214Z,8673
2018-06-11T07:00:46.222Z,8603
2018-06-11T07:01:16.249Z,8523
2018-06-11T07:01:46.306Z,8470
2018-06-11T07:02:16.328Z,8447
2018-06-11T07:02:46.363Z,8503
2018-06-11T07:03:16.446Z,8613
2018-06-11T07:03:46.389Z,8747
2018-06-11T07:04:16.448Z,8860
2018-06-11T07:04:46.468Z,8940
2018-06-11T07:05:16.497Z,8960
2018-06-11T07:05:46.523Z,9033
2018-06-11T07:06:16.535Z,9117
2018-06-11T07:06:46.594Z,9230
2018-06-11T07:07:16.593Z,9347
2018-06-11T07:07:46.607Z,9543
2018-06-11T07:08:16.751Z,9803
2018-06-11T07:08:46.696Z,10037
2018-06-11T07:09:16.714Z,10177
2018-06-11T07:09:46.782Z,10240
2018-06-11T07:10:16.778Z,10197
2018-06-11T07:10:46.840Z,10017
2018-06-11T07:11:16.819Z,9963
2018-06-11T07:11:46.864Z,9960
2018-06-11T07:12:16.884Z,10020
2018-06-11T07:12:46.913Z,10050
2018-06-11T07:13:47.032Z,10047
2018-06-11T07:14:17.027Z,10003
2018-06-11T07:14:47.033Z,9860
2018-06-11T07:15:17.077Z,9667
2018-06-11T07:15:47.094Z,9590
2018-06-11T07:16:17.177Z,9733
2018-06-11T07:16:47.164Z,9853
2018-06-11T07:17:17.236Z,9887
2018-06-11T07:17:47.269Z,9837
2018-06-11T07:18:17.268Z,9710
2018-06-11T07:18:47.332Z,9577
2018-06-11T07:19:17.373Z,9520
2018-06-11T07:19:47.391Z,9530
2018-06-11T07:20:17.485Z,9533
2018-06-11T07:20:47.463Z,9490
2018-06-11T07:21:17.482Z,9417
2018-06-11T07:21:47.530Z,9340
2018-06-11T07:22:17.564Z,9217
2018-06-11T07:22:47.529Z,9093
2018-06-11T07:23:17.612Z,9043
2018-06-11T07:23:47.611Z,9020
2018-06-11T07:24:17.647Z,9050
2018-06-11T07:24:47.659Z,9173
2018-06-11T07:25:17.687Z,9313
2018-06-11T07:25:47.721Z,9470
2018-06-11T07:26:17.757Z,9643
2018-06-11T07:26:47.774Z,9843
2018-06-11T07:27:17.800Z,10053
2018-06-11T07:27:47.846Z,10260
2018-06-11T07:28:17.874Z,10463
2018-06-11T07:28:47.902Z,10710
2018-06-11T07:29:17.927Z,11070
2018-06-11T07:29:47.955Z,11517
2018-06-11T07:30:17.983Z,11953
2018-06-11T07:30:48.016Z,12403
2018-06-11T07:31:18.073Z,12797
2018-06-11T07:31:48.084Z,13090
2018-06-11T07:32:18.120Z,13270
2018-06-11T07:32:48.147Z,13440
2018-06-11T07:33:18.217Z,13590
2018-06-11T07:33:48.205Z,13697
2018-06-11T07:34:18.272Z,13820
2018-06-11T07:34:48.365Z,13983
2018-06-11T07:35:18.355Z,14007
2018-06-11T07:35:48.378Z,13817
2018-06-11T07:36:18.423Z,13510
2018-06-11T07:36:48.440Z,13167
2018-06-11T07:37:18.451Z,12860
2018-06-11T07:37:48.457Z,12720
2018-06-11T07:38:18.501Z,12727
2018-06-11T07:38:48.510Z,12867
2018-06-11T07:39:18.646Z,13130
2018-06-11T07:39:48.640Z,13437
2018-06-11T07:40:18.649Z,13587
2018-06-11T07:40:48.719Z,13750
2018-06-11T07:41:18.741Z,13867
2018-06-11T07:41:48.735Z,13893
2018-06-11T07:42:18.775Z,14157
2018-06-11T07:42:48.832Z,14590
2018-06-11T07:43:18.840Z,14983
2018-06-11T07:43:48.883Z,15177
2018-06-11T07:44:18.910Z,15140
2018-06-11T07:44:48.920Z,14950
2018-06-11T07:45:18.939Z,14697
2018-06-11T07:45:49.026Z,14430
2018-06-11T07:46:19.018Z,14683
2018-06-11T07:46:49.078Z,15553
2018-06-11T07:47:19.083Z,16743
2018-06-11T07:47:49.098Z,17880
2018-06-11T07:48:19.212Z,18840
2018-06-11T07:48:49.171Z,19467
2018-06-11T07:49:19.214Z,19513
2018-06-11T07:49:49.249Z,19147
2018-06-11T07:50:19.316Z,18667
2018-06-11T07:50:49.293Z,18080
2018-06-11T07:51:19.342Z,17360
2018-06-11T07:51:49.359Z,16253
2018-06-11T07:52:19.396Z,15390
2018-06-11T07:52:49.411Z,14670
2018-06-11T07:53:19.465Z,13987
2018-06-11T07:53:49.467Z,13787
2018-06-11T07:54:19.520Z,14023
2018-06-11T07:54:49.561Z,14410
2018-06-11T07:55:19.544Z,15187
2018-06-11T07:55:49.571Z,15800
2018-06-11T07:56:19.654Z,16123
2018-06-11T07:56:49.648Z,16330
2018-06-11T07:57:19.653Z,16767
2018-06-11T07:57:49.704Z,17177
2018-06-11T07:58:19.726Z,17577
2018-06-11T07:58:49.749Z,17730
2018-06-11T07:59:19.780Z,17670
2018-06-11T07:59:49.853Z,18050
2018-06-11T08:00:19.843Z,18653
2018-06-11T08:00:49.881Z,18960
2018-06-11T08:01:19.944Z,19453
2018-06-11T08:01:49.950Z,20393
2018-06-11T08:02:19.971Z,23007
2018-06-11T08:02:49.999Z,24523
2018-06-11T08:03:20.029Z,23780
2018-06-11T08:03:50.089Z,24540
2018-06-11T08:04:20.143Z,28910
2018-06-11T08:04:50.175Z,26033
2018-06-11T08:05:20.152Z,24197
2018-06-11T08:05:50.222Z,24593
2018-06-11T08:06:20.278Z,33803
2018-06-11T08:06:50.258Z,27220
2018-06-11T08:07:20.317Z,23957
2018-06-11T08:07:50.393Z,23997
2018-06-11T08:08:20.354Z,24703
2018-06-11T08:08:50.429Z,25533
2018-06-11T08:09:20.399Z,26883
2018-06-11T08:09:50.472Z,29627
2018-06-11T08:10:20.527Z,42030
2018-06-11T08:10:50.563Z,57693
2018-06-11T08:11:20.579Z,57773
2018-06-11T08:11:50.568Z,55610
2018-06-11T08:12:20.630Z,32150
2018-06-11T08:12:50.609Z,27017
2018-06-11T08:13:20.656Z,25403
2018-06-11T08:13:50.704Z,29007
2018-06-11T08:14:20.709Z,38687
2018-06-11T08:14:50.773Z,32217
2018-06-11T08:15:20.781Z,29470
2018-06-11T08:15:50.835Z,28353
2018-06-11T08:16:20.830Z,33350
2018-06-11T08:16:50.865Z,54243
2018-06-11T08:17:20.883Z,58860
2018-06-11T08:17:50.929Z,60080
2018-06-11T08:18:20.951Z,34213
2018-06-11T08:18:50.978Z,48963
2018-06-11T08:19:21.101Z,49353
2018-06-11T08:19:51.067Z,59320
2018-06-11T08:20:21.158Z,34753
2018-06-11T08:20:51.138Z,30053
2018-06-11T08:21:21.133Z,31147
2018-06-11T08:21:51.208Z,32213
2018-06-11T08:22:21.221Z,30330
2018-06-11T08:22:51.246Z,29167
2018-06-11T08:23:21.289Z,29513
2018-06-11T08:23:51.330Z,28077
2018-06-11T08:24:21.402Z,27973
2018-06-11T08:24:51.378Z,28227
2018-06-11T08:25:21.423Z,28530
2018-06-11T08:25:51.461Z,29213
2018-06-11T08:26:21.523Z,31987
2018-06-11T08:26:51.514Z,70460
2018-06-11T08:27:21.537Z,33280
2018-06-11T08:27:51.647Z,29737
2018-06-11T08:28:21.631Z,29577
2018-06-11T08:28:51.651Z,29360
2018-06-11T08:29:21.673Z,28973
2018-06-11T08:29:51.782Z,29310
2018-06-11T08:30:21.716Z,43823
2018-06-11T08:30:51.753Z,31700
2018-06-11T08:31:21.790Z,27770
2018-06-11T08:31:51.824Z,27963
2018-06-11T08:32:21.867Z,29120
2018-06-11T08:32:51.876Z,47473
2018-06-11T08:33:21.904Z,30997
2018-06-11T08:33:51.964Z,30273
2018-06-11T08:34:22.015Z,31660
2018-06-11T08:34:52.006Z,31277
2018-06-11T08:35:22.039Z,31973
2018-06-11T08:35:52.077Z,29383
2018-06-11T08:36:22.116Z,27593
2018-06-11T08:36:52.125Z,26400
2018-06-11T08:37:22.190Z,25243
2018-06-11T08:37:52.191Z,23887
2018-06-11T08:38:22.232Z,23113
2018-06-11T08:38:52.282Z,22663
2018-06-11T08:39:22.308Z,22463
2018-06-11T08:39:52.368Z,22403
2018-06-11T08:40:22.357Z,22393
2018-06-11T08:40:52.389Z,22490
2018-06-11T08:41:22.399Z,22667
2018-06-11T08:41:52.426Z,22790
2018-06-11T08:42:22.453Z,23093
2018-06-11T08:42:52.474Z,23680
2018-06-11T08:43:22.548Z,24610
2018-06-11T08:43:52.554Z,24323
2018-06-11T08:44:22.564Z,24153
2018-06-11T08:44:52.654Z,24117
2018-06-11T08:45:22.630Z,24120
2018-06-11T08:45:52.651Z,24020
2018-06-11T08:46:22.707Z,23907
2018-06-11T08:46:52.709Z,23947
2018-06-11T08:47:22.772Z,24243
2018-06-11T08:47:52.787Z,26273
2018-06-11T08:48:22.801Z,27060
2018-06-11T08:48:52.856Z,25163
2018-06-11T08:49:22.873Z,24850
2018-06-11T08:49:52.951Z,24800
2018-06-11T08:50:22.924Z,24857
2018-06-11T08:50:52.952Z,25023
2018-06-11T08:51:23.032Z,25923
2018-06-11T08:51:53.029Z,29627
2018-06-11T08:52:23.061Z,27203
2018-06-11T08:52:53.089Z,27630
2018-06-11T08:53:23.113Z,28563
2018-06-11T08:53:53.134Z,29713
2018-06-11T08:54:23.225Z,30717
2018-06-11T08:54:53.262Z,35647
2018-06-11T08:55:23.241Z,37333
2018-06-11T08:55:53.344Z,35180
2018-06-11T08:56:23.300Z,31670
2018-06-11T08:56:53.342Z,27577
2018-06-11T08:57:23.382Z,24457
2018-06-11T08:57:53.439Z,23043
2018-06-11T08:58:23.442Z,22223
2018-06-11T08:58:53.500Z,21883
2018-06-11T08:59:23.533Z,21827
2018-06-11T08:59:53.578Z,21317
2018-06-11T09:00:23.560Z,21990
2018-06-11T09:00:53.672Z,24893
2018-06-11T09:01:23.612Z,25813
2018-06-11T09:01:53.637Z,27317
2018-06-11T09:02:23.687Z,68150
2018-06-11T09:02:53.712Z,67557
2018-06-11T09:03:23.735Z,68130
2018-06-11T09:03:53.765Z,70730
2018-06-11T09:04:23.809Z,70803
2018-06-11T09:04:53.873Z,71037
2018-06-11T09:05:23.867Z,71633
2018-06-11T09:05:53.934Z,66890
2018-06-11T09:06:23.929Z,67790
2018-06-11T09:06:53.970Z,68787
2018-06-11T09:07:23.978Z,48433
2018-06-11T09:07:54.019Z,61440
2018-06-11T09:08:24.081Z,57567
2018-06-11T09:08:54.067Z,34370
2018-06-11T09:09:24.121Z,29093
2018-06-11T09:09:54.134Z,27560
2018-06-11T09:10:24.198Z,28893
2018-06-11T09:10:54.245Z,49670
2018-06-11T09:11:24.300Z,72220
2018-06-11T09:11:54.256Z,71243
2018-06-11T09:12:24.361Z,70113
2018-06-11T09:12:54.359Z,68673
2018-06-11T09:13:24.353Z,66087
2018-06-11T09:13:54.419Z,70710
2018-06-11T09:14:24.422Z,45487
2018-06-11T09:14:54.480Z,30507
2018-06-11T09:15:24.489Z,48780
2018-06-11T09:15:54.564Z,69490
2018-06-11T09:16:24.568Z,70750
2018-06-11T09:16:54.590Z,43713
2018-06-11T09:17:24.663Z,33977
2018-06-11T09:17:54.706Z,28223
2018-06-11T09:18:24.878Z,24537
2018-06-11T09:18:54.716Z,23387
2018-06-11T09:19:24.748Z,27277
2018-06-11T09:19:54.848Z,30107
2018-06-11T09:20:24.798Z,30453
2018-06-11T09:20:54.927Z,51617
2018-06-11T09:21:24.919Z,67363
2018-06-11T09:21:54.905Z,65463
2018-06-11T09:22:24.976Z,65957
2018-06-11T09:22:55.002Z,67330
2018-06-11T09:23:25.023Z,66923
2018-06-11T09:23:55.022Z,65927
2018-06-11T09:24:25.061Z,65003
2018-06-11T09:24:55.107Z,65787
2018-06-11T09:25:25.166Z,67360
2018-06-11T09:25:55.198Z,69700
2018-06-11T09:26:25.174Z,70327
2018-06-11T09:26:55.263Z,70000
2018-06-11T09:27:25.271Z,67567
2018-06-11T09:27:55.317Z,47340
2018-06-11T09:28:25.335Z,60707
2018-06-11T09:28:55.332Z,26160
2018-06-11T09:29:25.344Z,23950
2018-06-11T09:29:55.413Z,22543
2018-06-11T09:30:25.444Z,23203
2018-06-11T09:30:55.575Z,22437
2018-06-11T09:31:25.471Z,63927